createdAt,value
2018-11-28T00:02:17.997Z,28.30
2018-11-28T00:04:45.029Z,26.67
2018-11-28T00:07:12.074Z,22.47
2018-11-28T00:09:39.542Z,16.70
2018-11-28T00:12:06.584Z,20.63
2018-11-28T00:14:33.618Z,18.77
2018-11-28T00:17:00.670Z,26.17
2018-11-28T00:19:27.894Z,19.30
2018-11-28T00:21:54.979Z,19.57
2018-11-28T00:24:22.350Z,18.73
2018-11-28T00:26:49.600Z,18.30
2018-11-28T00:29:16.745Z,24.17
2018-11-28T00:31:43.907Z,26.07
2018-11-28T00:34:11.040Z,24.47
2018-11-28T00:36:38.086Z,20.67
2018-11-28T00:39:06.515Z,23.60
2018-11-28T00:41:33.856Z,26.10
2018-11-28T00:44:01.148Z,25.60
2018-11-28T00:46:28.207Z,24.00
2018-11-28T00:48:55.275Z,27.23
2018-11-28T00:51:22.500Z,24.80
2018-11-28T00:53:50.832Z,27.30
2018-11-28T00:56:17.981Z,24.93
2018-11-28T00:58:45.030Z,29.70
2018-11-28T01:01:12.113Z,27.40
2018-11-28T01:03:39.191Z,25.63
2018-11-28T01:06:06.291Z,25.40
2018-11-28T01:08:33.640Z,23.47
2018-11-28T01:11:00.684Z,24.90
2018-11-28T01:13:27.809Z,24.87
2018-11-28T01:15:54.884Z,30.83
2018-11-28T01:18:21.943Z,32.70
2018-11-28T01:20:49.050Z,28.40
2018-11-28T01:23:16.214Z,26.87
2018-11-28T01:25:43.291Z,25.50
2018-11-28T01:28:10.366Z,27.40
2018-11-28T01:30:37.691Z,27.43
2018-11-28T01:33:04.807Z,26.77
2018-11-28T01:35:31.859Z,28.00
2018-11-28T01:37:59.360Z,26.47
2018-11-28T01:40:26.449Z,24.40
2018-11-28T01:42:53.631Z,30.60
2018-11-28T01:45:21.522Z,25.20
2018-11-28T01:47:48.594Z,25.33
2018-11-28T01:50:16.136Z,22.90
2018-11-28T01:52:43.223Z,24.83
2018-11-28T01:55:10.802Z,33.93
2018-11-28T01:57:37.912Z,28.80
2018-11-28T02:00:06.996Z,28.53
2018-11-28T02:02:34.068Z,29.70
2018-11-28T02:05:01.143Z,30.50
2018-11-28T02:07:28.288Z,29.43
2018-11-28T02:09:55.355Z,29.90
2018-11-28T02:12:22.386Z,27.63
2018-11-28T02:14:49.575Z,27.13
2018-11-28T02:17:16.630Z,29.00
2018-11-28T02:19:43.733Z,29.03
2018-11-28T02:22:10.833Z,27.27
2018-11-28T02:24:37.919Z,27.80
2018-11-28T02:27:05.071Z,29.40
2018-11-28T02:29:32.151Z,31.53
2018-11-28T02:31:59.227Z,29.27
2018-11-28T02:34:26.293Z,29.80
2018-11-28T02:36:53.718Z,29.00
2018-11-28T02:39:20.772Z,30.97
2018-11-28T02:41:47.819Z,30.93
2018-11-28T02:44:14.919Z,27.80
2018-11-28T02:46:41.992Z,28.80
2018-11-28T02:49:09.087Z,30.13
2018-11-28T02:51:36.147Z,30.57
2018-11-28T02:54:03.422Z,27.77
2018-11-28T02:56:30.495Z,31.30
2018-11-28T02:58:58.034Z,29.57
2018-11-28T03:01:25.076Z,29.13
2018-11-28T03:03:52.309Z,28.20
2018-11-28T03:06:19.422Z,32.97
2018-11-28T03:08:46.522Z,34.17
2018-11-28T03:11:13.580Z,40.13
2018-11-28T03:13:40.667Z,32.10
2018-11-28T03:16:10.580Z,30.67
2018-11-28T03:18:37.691Z,27.50
2018-11-28T03:21:05.358Z,29.47
2018-11-28T03:23:32.435Z,27.53
2018-11-28T03:25:59.526Z,25.00
2018-11-28T03:28:26.806Z,31.23
2018-11-28T03:30:53.843Z,29.13
2018-11-28T03:33:20.919Z,23.93
2018-11-28T03:35:48.005Z,30.07
2018-11-28T03:38:15.075Z,25.57
2018-11-28T03:40:42.138Z,29.67
2018-11-28T03:43:09.192Z,30.90
2018-11-28T03:45:36.343Z,27.70
2018-11-28T03:48:03.420Z,26.37
2018-11-28T03:50:30.544Z,23.80
2018-11-28T03:52:57.591Z,25.73
2018-11-28T03:55:24.654Z,29.17
2018-11-28T03:57:51.764Z,33.70
2018-11-28T04:00:19.378Z,32.47
2018-11-28T04:02:46.521Z,30.57
2018-11-28T04:05:13.593Z,33.20
2018-11-28T04:07:40.730Z,34.80
2018-11-28T04:10:08.308Z,36.60
2018-11-28T04:12:35.439Z,38.00
2018-11-28T04:15:02.523Z,53.53
2018-11-28T04:17:29.599Z,64.93
2018-11-28T04:19:56.933Z,71.93
2018-11-28T04:22:24.004Z,77.30
2018-11-28T04:24:51.080Z,70.93
2018-11-28T04:27:18.164Z,100.50
2018-11-28T04:29:45.211Z,120.20
2018-11-28T04:32:12.257Z,108.23
2018-11-28T04:35:42.811Z,108.80
2018-11-28T04:38:09.896Z,115.57
2018-11-28T04:40:37.001Z,111.20
2018-11-28T04:43:04.507Z,116.60
2018-11-28T04:46:35.151Z,112.30
2018-11-28T04:49:02.234Z,98.73
2018-11-28T04:51:29.289Z,97.10
2018-11-28T04:53:56.342Z,79.70
2018-11-28T04:56:23.415Z,81.93
2018-11-28T04:58:50.457Z,87.97
2018-11-28T05:01:17.490Z,74.70
2018-11-28T05:03:48.008Z,78.37
2018-11-28T05:06:20.855Z,65.63
2018-11-28T05:08:47.919Z,59.80
2018-11-28T05:11:14.954Z,62.87
2018-11-28T05:13:41.994Z,55.17
2018-11-28T05:16:09.062Z,62.67
2018-11-28T05:18:36.114Z,55.07
2018-11-28T05:21:03.161Z,58.00
2018-11-28T05:23:30.240Z,56.83
2018-11-28T05:25:57.282Z,64.50
2018-11-28T05:28:24.368Z,57.27
2018-11-28T05:30:51.413Z,59.57
2018-11-28T05:33:18.544Z,63.13
2018-11-28T05:35:45.735Z,55.23
2018-11-28T05:38:13.756Z,59.17
2018-11-28T05:40:42.109Z,48.43
2018-11-28T05:43:09.191Z,52.90
2018-11-28T05:45:36.415Z,59.10
2018-11-28T05:48:03.650Z,58.07
2018-11-28T05:50:30.725Z,60.60
2018-11-28T05:52:57.814Z,55.20
2018-11-28T05:55:24.874Z,52.70
2018-11-28T05:57:52.019Z,58.67
2018-11-28T06:00:22.772Z,60.93
2018-11-28T06:02:49.872Z,62.57
2018-11-28T06:05:16.930Z,63.53
2018-11-28T06:07:44.039Z,62.90
2018-11-28T06:10:11.086Z,62.70
2018-11-28T06:12:38.128Z,60.47
2018-11-28T06:15:06.665Z,64.63
2018-11-28T06:17:33.751Z,66.93
2018-11-28T06:20:00.833Z,58.57
2018-11-28T06:22:27.939Z,65.07
2018-11-28T06:24:55.032Z,61.03
2018-11-28T06:27:22.129Z,68.97
2018-11-28T06:29:49.518Z,62.23
2018-11-28T06:32:16.599Z,66.07
2018-11-28T06:34:43.699Z,60.67
2018-11-28T06:37:10.886Z,62.60
2018-11-28T06:39:37.979Z,66.27
2018-11-28T06:42:05.285Z,60.37
2018-11-28T06:44:32.357Z,67.17
2018-11-28T06:46:59.439Z,62.90
2018-11-28T06:49:26.506Z,73.10
2018-11-28T06:51:53.842Z,59.40
2018-11-28T06:54:20.899Z,64.00
2018-11-28T06:56:48.054Z,62.90
2018-11-28T06:59:15.420Z,57.30
2018-11-28T07:01:42.503Z,62.47
2018-11-28T07:04:09.550Z,57.33
2018-11-28T07:06:36.604Z,64.93
2018-11-28T07:09:05.156Z,58.70
2018-11-28T07:11:32.234Z,56.00
2018-11-28T07:13:59.358Z,62.20
2018-11-28T07:16:27.130Z,54.77
2018-11-28T07:19:06.624Z,53.97
2018-11-28T07:21:34.028Z,56.90
2018-11-28T07:24:01.096Z,51.20
2018-11-28T07:26:28.215Z,58.60
2018-11-28T07:28:55.312Z,53.43
2018-11-28T07:31:22.371Z,57.50
2018-11-28T07:33:49.426Z,50.47
2018-11-28T07:36:16.511Z,47.90
2018-11-28T07:38:50.543Z,50.37
2018-11-28T07:41:17.602Z,53.50
2018-11-28T07:43:44.840Z,48.00
2018-11-28T07:46:12.246Z,50.80
2018-11-28T07:48:39.486Z,57.03
2018-11-28T07:51:06.493Z,52.00
2018-11-28T07:53:33.637Z,58.23
2018-11-28T07:56:00.726Z,54.47
2018-11-28T07:58:27.807Z,57.97
2018-11-28T08:00:55.138Z,56.63
2018-11-28T08:03:22.227Z,47.60
2018-11-28T08:05:49.308Z,48.70
2018-11-28T08:08:16.422Z,47.80
2018-11-28T08:10:43.474Z,57.20
2018-11-28T08:13:10.640Z,49.40
2018-11-28T08:15:37.795Z,53.53
2018-11-28T08:18:04.920Z,48.27
2018-11-28T08:20:32.176Z,44.67
2018-11-28T08:22:59.559Z,38.53
2018-11-28T08:25:27.960Z,39.43
2018-11-28T08:27:53.856Z,40.70
2018-11-28T08:30:22.676Z,43.90
2018-11-28T08:32:49.799Z,42.17
2018-11-28T08:35:16.884Z,42.93
2018-11-28T08:37:44.056Z,36.37
2018-11-28T08:40:11.700Z,37.67
2018-11-28T08:42:38.750Z,37.13
2018-11-28T08:45:07.135Z,41.00
2018-11-28T08:47:34.169Z,38.40
2018-11-28T08:50:01.219Z,35.13
2018-11-28T08:52:28.298Z,32.97
2018-11-28T08:54:55.378Z,33.90
2018-11-28T08:57:22.455Z,34.03
2018-11-28T08:59:49.643Z,37.07
2018-11-28T09:02:16.711Z,34.07
2018-11-28T09:04:43.780Z,34.23
2018-11-28T09:07:10.839Z,27.30
2018-11-28T09:09:37.923Z,25.40
2018-11-28T09:12:05.029Z,25.90
2018-11-28T09:14:32.355Z,29.90
2018-11-28T09:16:59.434Z,25.00
2018-11-28T09:19:26.523Z,24.53
2018-11-28T09:21:53.643Z,32.07
2018-11-28T09:24:20.710Z,23.07
2018-11-28T09:26:47.847Z,29.37
2018-11-28T09:29:15.266Z,28.37
2018-11-28T09:31:42.319Z,29.43
2018-11-28T09:34:09.366Z,27.70
2018-11-28T09:36:36.567Z,30.30
2018-11-28T09:39:04.498Z,29.63
2018-11-28T09:41:31.566Z,23.37
2018-11-28T09:43:58.659Z,21.03
2018-11-28T09:46:25.778Z,25.90
2018-11-28T09:48:52.822Z,20.77
2018-11-28T09:51:20.286Z,21.73
2018-11-28T09:53:47.347Z,21.37
2018-11-28T09:56:14.473Z,18.97
2018-11-28T09:58:41.575Z,25.37
2018-11-28T10:01:08.635Z,21.83
2018-11-28T10:03:35.668Z,20.17
2018-11-28T10:06:02.845Z,22.30
2018-11-28T10:08:29.878Z,24.03
2018-11-28T10:10:56.988Z,25.60
2018-11-28T10:13:24.423Z,17.00
2018-11-28T10:15:51.574Z,20.40
2018-11-28T10:18:18.787Z,27.63
2018-11-28T10:20:45.904Z,22.53
2018-11-28T10:23:12.955Z,25.07
2018-11-28T10:25:40.011Z,21.60
2018-11-28T10:28:07.378Z,21.40
2018-11-28T10:30:34.946Z,26.20
2018-11-28T10:33:02.169Z,21.33
2018-11-28T10:35:29.289Z,18.00
2018-11-28T10:37:56.410Z,26.20
2018-11-28T10:40:23.577Z,19.37
2018-11-28T10:42:51.854Z,22.73
2018-11-28T10:45:19.305Z,18.83
2018-11-28T10:47:46.376Z,14.37
2018-11-28T10:50:14.075Z,15.93
2018-11-28T10:52:41.222Z,13.87
2018-11-28T10:55:12.708Z,17.70
2018-11-28T10:57:39.820Z,16.60
2018-11-28T11:00:13.438Z,14.37
2018-11-28T11:02:46.990Z,17.50
2018-11-28T11:05:19.823Z,16.30
2018-11-28T11:07:52.699Z,11.67
2018-11-28T11:10:25.708Z,15.33
2018-11-28T11:12:58.780Z,17.13
2018-11-28T11:15:25.824Z,15.83
2018-11-28T11:17:52.913Z,13.80
2018-11-28T11:20:20.244Z,14.70
2018-11-28T11:22:47.287Z,22.27
2018-11-28T11:25:14.370Z,14.87
2018-11-28T11:27:41.466Z,14.07
2018-11-28T11:30:09.016Z,17.60
2018-11-28T11:32:36.098Z,12.57
2018-11-28T11:35:04.162Z,18.93
2018-11-28T11:37:31.221Z,15.37
2018-11-28T11:39:58.333Z,14.80
2018-11-28T11:42:25.458Z,16.53
2018-11-28T11:44:52.502Z,11.83
2018-11-28T11:47:19.600Z,11.20
2018-11-28T11:49:46.915Z,11.93
2018-11-28T11:52:13.988Z,13.73
2018-11-28T11:54:41.087Z,16.70
2018-11-28T11:57:08.175Z,14.73
2018-11-28T11:59:35.217Z,13.40
2018-11-28T12:02:02.380Z,14.77
2018-11-28T12:04:29.438Z,15.20
2018-11-28T12:06:56.582Z,11.53
2018-11-28T12:09:23.626Z,17.50
2018-11-28T12:11:50.722Z,13.60
2018-11-28T12:14:17.920Z,17.80
2018-11-28T12:16:45.000Z,13.77
2018-11-28T12:19:12.137Z,9.93
2018-11-28T12:21:39.224Z,11.53
2018-11-28T12:24:06.304Z,17.50
2018-11-28T12:26:33.387Z,14.63
2018-11-28T12:29:00.472Z,13.03
2018-11-28T12:34:01.792Z,14.47
2018-11-28T12:36:28.859Z,13.27
2018-11-28T12:38:55.944Z,23.23
2018-11-28T12:41:23.014Z,13.47
2018-11-28T12:43:50.160Z,11.53
2018-11-28T12:46:17.226Z,13.30
2018-11-28T12:48:44.327Z,13.20
2018-11-28T12:51:11.417Z,12.20
2018-11-28T12:53:38.504Z,12.77
2018-11-28T12:56:05.864Z,12.47
2018-11-28T12:58:32.935Z,14.07
2018-11-28T13:01:00.062Z,11.83
2018-11-28T13:03:27.154Z,9.00
2018-11-28T13:05:54.205Z,11.93
2018-11-28T13:08:21.279Z,11.60
2018-11-28T13:10:48.420Z,13.73
2018-11-28T13:13:15.503Z,16.93
2018-11-28T13:15:42.593Z,11.83
2018-11-28T13:18:10.039Z,12.90
2018-11-28T13:20:37.542Z,14.63
2018-11-28T13:23:05.006Z,17.70
2018-11-28T13:25:32.260Z,16.43
2018-11-28T13:27:59.674Z,14.70
2018-11-28T13:30:26.912Z,10.47
2018-11-28T13:32:54.666Z,11.57
2018-11-28T13:35:23.219Z,14.10
2018-11-28T13:37:50.895Z,15.00
2018-11-28T13:40:18.339Z,12.23
2018-11-28T13:42:45.832Z,13.33
2018-11-28T13:45:13.566Z,18.70
2018-11-28T13:47:41.159Z,12.60
2018-11-28T13:50:09.008Z,12.50
2018-11-28T13:52:36.190Z,11.53
2018-11-28T13:57:32.335Z,15.33
2018-11-28T13:59:59.441Z,17.67
2018-11-28T14:02:26.536Z,12.27
2018-11-28T14:04:54.122Z,15.70
2018-11-28T14:07:21.270Z,15.37
2018-11-28T14:09:48.407Z,11.60
2018-11-28T14:12:15.476Z,14.40
2018-11-28T14:14:42.619Z,13.80
2018-11-28T14:17:09.966Z,13.17
2018-11-28T14:19:37.351Z,15.80
2018-11-28T14:22:04.541Z,13.63
2018-11-28T14:24:31.789Z,12.00
2018-11-28T14:26:58.869Z,15.93
2018-11-28T14:29:25.977Z,10.50
2018-11-28T14:31:53.267Z,10.67
2018-11-28T14:34:20.330Z,17.20
2018-11-28T14:36:47.419Z,14.53
2018-11-28T14:39:14.763Z,12.83
2018-11-28T14:41:41.883Z,16.27
2018-11-28T14:44:09.144Z,13.57
2018-11-28T14:46:36.282Z,12.03
2018-11-28T14:49:03.445Z,12.43
2018-11-28T14:51:30.584Z,12.97
2018-11-28T14:53:57.704Z,13.50
2018-11-28T14:56:24.774Z,12.30
2018-11-28T14:58:51.878Z,14.10
2018-11-28T15:01:19.002Z,11.27
2018-11-28T15:03:46.123Z,16.90
2018-11-28T15:06:45.978Z,13.50
2018-11-28T15:09:18.963Z,14.00
2018-11-28T15:11:46.100Z,33.13
2018-11-28T15:14:13.179Z,14.07
2018-11-28T15:16:40.502Z,20.93
2018-11-28T15:19:07.658Z,14.13
2018-11-28T15:21:34.726Z,9.17
2018-11-28T15:24:01.896Z,12.97
2018-11-28T15:26:29.331Z,13.37
2018-11-28T15:28:56.440Z,12.60
2018-11-28T15:31:24.140Z,15.00
2018-11-28T15:33:51.030Z,13.30
2018-11-28T15:36:18.141Z,13.60
2018-11-28T15:38:45.865Z,10.23
2018-11-28T15:41:13.021Z,10.30
2018-11-28T15:43:40.229Z,27.23
2018-11-28T15:46:07.334Z,16.77
2018-11-28T15:48:34.413Z,13.60
2018-11-28T15:51:01.516Z,13.90
2018-11-28T15:53:29.408Z,12.43
2018-11-28T15:55:57.014Z,14.50
2018-11-28T15:58:24.075Z,12.70
2018-11-28T16:00:51.439Z,14.53
2018-11-28T16:03:18.731Z,11.60
2018-11-28T16:05:45.910Z,11.33
2018-11-28T16:08:12.996Z,13.10
2018-11-28T16:10:44.214Z,12.83
2018-11-28T16:13:12.934Z,12.70
2018-11-28T16:15:44.130Z,15.60
2018-11-28T16:18:11.495Z,14.43
2018-11-28T16:20:38.639Z,18.07
2018-11-28T16:23:05.830Z,16.03
2018-11-28T16:25:32.994Z,19.60
2018-11-28T16:28:00.122Z,17.37
2018-11-28T16:30:27.320Z,18.40
2018-11-28T16:32:54.441Z,13.57
2018-11-28T16:35:22.166Z,13.07
2018-11-28T16:37:49.669Z,13.63
2018-11-28T16:40:16.911Z,14.90
2018-11-28T16:42:44.063Z,13.63
2018-11-28T16:45:13.843Z,16.40
2018-11-28T16:47:40.949Z,12.57
2018-11-28T16:50:08.517Z,18.53
2018-11-28T16:52:36.093Z,16.20
2018-11-28T16:55:03.217Z,11.23
2018-11-28T16:57:30.592Z,25.77
2018-11-28T16:59:57.824Z,17.63
2018-11-28T17:02:25.149Z,15.07
2018-11-28T17:04:52.500Z,15.17
2018-11-28T17:07:19.599Z,13.53
2018-11-28T17:09:46.708Z,17.07
2018-11-28T17:12:13.754Z,17.93
2018-11-28T17:14:40.906Z,14.20
2018-11-28T17:17:08.007Z,17.10
2018-11-28T17:19:35.226Z,19.07
2018-11-28T17:22:02.631Z,19.73
2018-11-28T17:24:29.874Z,19.00
2018-11-28T17:26:57.051Z,15.60
2018-11-28T17:29:24.245Z,16.80
2018-11-28T17:31:51.334Z,17.83
2018-11-28T17:34:18.542Z,15.00
2018-11-28T17:36:45.651Z,16.60
2018-11-28T17:39:12.755Z,21.43
2018-11-28T17:41:39.817Z,23.77
2018-11-28T17:44:07.309Z,19.07
2018-11-28T17:46:35.029Z,17.40
2018-11-28T17:49:02.112Z,19.07
2018-11-28T17:51:29.303Z,18.43
2018-11-28T17:53:56.395Z,15.53
2018-11-28T17:56:23.550Z,12.40
2018-11-28T17:58:50.655Z,20.33
2018-11-28T18:01:17.753Z,16.50
2018-11-28T18:03:44.822Z,13.43
2018-11-28T18:06:11.906Z,16.63
2018-11-28T18:08:39.048Z,13.23
2018-11-28T18:11:07.023Z,13.83
2018-11-28T18:13:39.395Z,13.43
2018-11-28T18:16:01.628Z,19.43
2018-11-28T18:18:28.802Z,19.70
2018-11-28T18:20:55.926Z,24.47
2018-11-28T18:23:23.053Z,13.00
2018-11-28T18:25:50.447Z,13.10
2018-11-28T18:28:18.881Z,16.67
2018-11-28T18:30:46.111Z,16.70
2018-11-28T18:33:14.822Z,17.47
2018-11-28T18:35:42.099Z,18.87
2018-11-28T18:38:09.803Z,21.67
2018-11-28T18:40:36.995Z,21.70
2018-11-28T18:43:04.740Z,14.73
2018-11-28T18:45:32.571Z,19.07
2018-11-28T18:48:00.674Z,13.90
2018-11-28T18:50:27.778Z,16.97
2018-11-28T18:52:54.867Z,26.80
2018-11-28T18:55:22.018Z,20.43
2018-11-28T18:57:51.273Z,20.13
2018-11-28T19:00:19.887Z,17.47
2018-11-28T19:02:46.971Z,23.73
2018-11-28T19:05:14.367Z,22.40
2018-11-28T19:07:41.454Z,22.57
2018-11-28T19:10:12.129Z,26.13
2018-11-28T19:12:39.392Z,21.63
2018-11-28T19:15:08.148Z,25.90
2018-11-28T19:17:35.367Z,24.80
2018-11-28T19:20:04.230Z,25.00
2018-11-28T19:22:31.312Z,26.30
2018-11-28T19:24:59.350Z,23.70
2018-11-28T19:27:26.429Z,30.03
2018-11-28T19:29:54.201Z,22.67
2018-11-28T19:32:21.281Z,25.47
2018-11-28T19:34:48.987Z,30.93
2018-11-28T19:37:16.059Z,28.00
2018-11-28T19:39:43.147Z,28.10
2018-11-28T19:42:10.247Z,31.37
2018-11-28T19:44:38.231Z,31.07
2018-11-28T19:47:05.278Z,31.10
2018-11-28T19:49:32.365Z,36.50
2018-11-28T19:51:59.429Z,36.43
2018-11-28T19:54:27.137Z,32.73
2018-11-28T19:56:54.203Z,28.77
2018-11-28T19:59:21.863Z,40.27
2018-11-28T20:01:48.960Z,39.90
2018-11-28T20:04:18.983Z,33.90
2018-11-28T20:06:46.675Z,34.77
2018-11-28T20:09:22.252Z,38.30
2018-11-28T20:11:50.033Z,36.13
2018-11-28T20:14:21.243Z,35.23
2018-11-28T20:16:50.454Z,32.37
2018-11-28T20:19:18.265Z,36.83
2018-11-28T20:21:47.440Z,38.10
2018-11-28T20:24:16.508Z,40.53
2018-11-28T20:26:45.690Z,42.90
2018-11-28T20:29:12.998Z,39.00
2018-11-28T20:31:40.122Z,52.43
2018-11-28T20:34:07.206Z,35.03
2018-11-28T20:36:34.447Z,43.43
2018-11-28T20:39:01.918Z,40.40
2018-11-28T20:41:29.094Z,42.20
2018-11-28T20:43:56.236Z,43.50
2018-11-28T20:46:23.411Z,42.13
2018-11-28T20:48:50.649Z,42.23
2018-11-28T20:51:17.779Z,45.57
2018-11-28T20:53:45.687Z,47.23
2018-11-28T20:56:13.032Z,47.97
2018-11-28T20:58:40.203Z,48.17
2018-11-28T21:01:07.555Z,47.03
2018-11-28T21:03:34.913Z,48.57
2018-11-28T21:06:02.068Z,50.53
2018-11-28T21:08:29.257Z,44.27
2018-11-28T21:10:56.556Z,44.20
2018-11-28T21:13:23.812Z,49.27
2018-11-28T21:15:50.994Z,47.73
2018-11-28T21:18:18.217Z,40.60
2018-11-28T21:20:45.638Z,51.40
2018-11-28T21:23:13.935Z,49.50
2018-11-28T21:25:41.052Z,52.50
2018-11-28T21:28:08.134Z,49.23
2018-11-28T21:30:35.258Z,56.33
2018-11-28T21:33:02.386Z,53.27
2018-11-28T21:35:30.368Z,42.70
2018-11-28T21:37:57.435Z,59.27
2018-11-28T21:40:24.543Z,54.63
2018-11-28T21:42:51.620Z,55.80
2018-11-28T21:45:25.788Z,52.70
2018-11-28T21:47:53.007Z,49.70
2018-11-28T21:50:20.129Z,54.53
2018-11-28T21:52:47.581Z,55.43
2018-11-28T21:55:18.573Z,49.60
2018-11-28T21:57:45.700Z,55.83
2018-11-28T22:00:15.259Z,46.30
2018-11-28T22:02:43.158Z,54.23
2018-11-28T22:05:12.001Z,53.47
2018-11-28T22:07:39.259Z,54.07
2018-11-28T22:10:08.315Z,41.43
2018-11-28T22:12:35.497Z,54.67
2018-11-28T22:15:03.231Z,45.80
2018-11-28T22:17:30.520Z,53.97
2018-11-28T22:19:57.718Z,50.33
2018-11-28T22:22:24.856Z,42.60
2018-11-28T22:24:52.238Z,44.17
2018-11-28T22:27:19.364Z,60.20
2018-11-28T22:29:46.733Z,44.57
2018-11-28T22:32:13.823Z,51.30
2018-11-28T22:34:41.109Z,52.17
2018-11-28T22:37:08.464Z,47.27
2018-11-28T22:39:35.642Z,56.37
2018-11-28T22:42:03.010Z,55.27
2018-11-28T22:44:30.150Z,58.73
2018-11-28T22:46:58.445Z,54.47
2018-11-28T22:49:25.702Z,51.53
2018-11-28T22:51:52.902Z,55.40
2018-11-28T22:54:20.081Z,51.13
2018-11-28T22:56:47.386Z,60.40
2018-11-28T22:59:19.283Z,52.30
2018-11-28T23:03:56.722Z,55.07
2018-11-28T23:06:24.249Z,56.00
2018-11-28T23:08:51.415Z,58.03
2018-11-28T23:11:18.720Z,64.70
2018-11-28T23:13:45.839Z,67.63
2018-11-28T23:16:13.006Z,56.30
2018-11-28T23:18:40.255Z,60.27
2018-11-28T23:21:07.736Z,55.23
2018-11-28T23:23:34.933Z,64.90
2018-11-28T23:26:02.068Z,66.03
2018-11-28T23:28:29.189Z,60.17
2018-11-28T23:30:56.242Z,63.23
2018-11-28T23:33:23.277Z,59.47
2018-11-28T23:35:50.770Z,60.00
2018-11-28T23:38:17.853Z,60.10
2018-11-28T23:40:44.897Z,61.23
2018-11-28T23:43:12.202Z,63.87
2018-11-28T23:45:39.458Z,65.73
2018-11-28T23:48:09.279Z,60.23
2018-11-28T23:50:36.340Z,68.77
